Time;durP1;ratioP1;P1;durP2;ratioP2;P2;SDS_P1;SDS_P2;PMS_P1;PMS_P2;Temp;Humidity;BMP_temperature;BMP_pressure;BME280_temperature;BME280_humidity;BME280_pressure;Samples;Min_cycle;Max_cycle;Signal;HPM_P1;HPM_P2
2022/07/25 03:56:19;;;;;;;1.30;1.00;;;;;;;-145.06;100.00;60892.56;6002430;23;20036;-92
2022/07/25 03:58:58;;;;;;;1.02;0.90;;;;;;;-145.06;100.00;60892.56;5980037;23;20037;-90
2022/07/25 04:02:42;;;;;;;1.27;1.05;;;;;;;-145.06;100.00;60892.56;5985991;23;20084;-91
2022/07/25 14:27:41;;;;;;;;;;;;;;;;;;;;;
2022/07/25 14:41:33;;;;;;;1.10;0.73;;;;;;;-145.06;100.00;60892.56;5984746;23;20027;-90
2022/07/25 14:44:12;;;;;;;1.50;0.82;;;;;;;-145.06;100.00;60892.56;5970406;23;20852;-91
2022/07/25 14:54:15;;;;;;;1.17;0.68;;;;;;;-145.06;100.00;60892.56;6008386;23;20001;-91
2022/07/25 14:57:47;;;;;;;1.20;0.90;;;;;;;-145.06;100.00;60892.56;5964609;23;20009;-92
2022/07/25 15:00:26;;;;;;;1.25;0.60;;;;;;;-145.06;100.00;60892.56;5977196;23;20005;-89
2022/07/25 15:03:10;;;;;;;1.13;0.80;;;;;;;-145.06;100.00;60892.56;5976839;23;20009;-91
2022/07/25 15:06:35;;;;;;;3.03;0.75;;;;;;;-145.06;100.00;60892.56;5976139;23;20040;-91
2022/07/25 15:09:17;;;;;;;1.52;1.00;;;;;;;-145.06;100.00;60892.56;5976811;23;20028;-91
2022/07/25 15:12:21;;;;;;;;;;;;;;;;;;;;;
2022/07/25 15:15:00;;;;;;;3.15;0.65;;;;;;;-145.06;100.00;60892.56;6008829;23;20000;-91
2022/07/25 15:17:41;;;;;;;0.88;0.63;;;;;;;-145.06;100.00;60892.56;5977773;23;20324;-91
2022/07/25 15:20:21;;;;;;;1.20;0.80;;;;;;;-145.06;100.00;60892.56;5978593;23;20038;-90
2022/07/25 15:23:41;;;;;;;0.85;0.63;;;;;;;-145.06;100.00;60892.56;5985330;23;20009;-90
2022/07/25 15:29:19;;;;;;;1.60;0.60;;;;;;;-145.06;100.00;60892.56;6006103;22;20024;-90
2022/07/25 15:32:34;;;;;;;1.38;0.70;;;;;;;-145.06;100.00;60892.56;5977420;23;20012;-91
2022/07/25 15:35:13;;;;;;;1.00;0.55;;;;;;;-145.06;100.00;60892.56;5976727;23;20000;-88
2022/07/25 15:37:56;;;;;;;0.93;0.60;;;;;;;-145.06;100.00;60892.56;5977328;23;20008;-91
2022/07/25 15:40:36;;;;;;;1.58;0.57;;;;;;;-145.06;100.00;60892.56;5976840;23;20005;-90
2022/07/25 15:44:02;;;;;;;1.02;0.60;;;;;;;-145.06;100.00;60892.56;5976229;23;20343;-91
2022/07/25 15:47:50;;;;;;;1.25;0.55;;;;;;;-145.06;100.00;60892.56;5961983;23;20084;-92
2022/07/25 15:53:43;;;;;;;1.42;0.60;;;;;;;-145.06;100.00;60892.56;5916863;23;20085;-92
2022/07/25 15:56:37;;;;;;;0.67;0.60;;;;;;;-145.06;100.00;60892.56;5976769;23;20000;-91
2022/07/25 15:59:37;;;;;;;;;;;;;;;;;;;;;
2022/07/25 16:02:40;;;;;;;1.17;0.70;;;;;;;-145.06;100.00;60892.56;6008208;23;20099;-91
2022/07/25 16:09:27;;;;;;;;;;;;;;;;;;;;;
2022/07/25 16:12:14;;;;;;;1.05;0.52;;;;;;;-145.06;100.00;60892.56;5940461;23;20004;-91
2022/07/25 16:15:29;;;;;;;0.80;0.50;;;;;;;-145.06;100.00;60892.56;5978486;23;20001;-91
2022/07/25 16:18:16;;;;;;;1.80;0.77;;;;;;;-145.06;100.00;60892.56;5977692;23;20001;-91
2022/07/25 16:21:27;;;;;;;0.88;0.47;;;;;;;-145.06;100.00;60892.56;5978549;23;20012;-92
2022/07/25 16:24:09;;;;;;;1.00;0.57;;;;;;;-145.06;100.00;60892.56;5978184;23;20004;-92
2022/07/25 16:26:52;;;;;;;1.25;0.70;;;;;;;-145.06;100.00;60892.56;5977550;23;20443;-92
2022/07/25 16:29:31;;;;;;;1.02;0.65;;;;;;;-145.06;100.00;60892.56;5967828;23;20016;-90
2022/07/25 16:32:16;;;;;;;;;;;;;;;-145.06;100.00;60892.56;5968799;23;20028;-90
2022/07/25 16:34:58;;;;;;;0.57;0.50;;;;;;;-145.06;100.00;60892.56;5968392;23;19904;-91
2022/07/25 16:37:42;;;;;;;1.58;0.90;;;;;;;-145.06;100.00;60892.56;5967503;23;20013;-92
2022/07/25 16:40:30;;;;;;;0.93;0.57;;;;;;;-145.06;100.00;60892.56;5969092;23;20004;-92
2022/07/25 16:43:46;;;;;;;1.85;0.80;;;;;;;-145.06;100.00;60892.56;5968666;23;20009;-91
2022/07/25 16:46:51;;;;;;;1.15;0.60;;;;;;;-145.06;100.00;60892.56;5967507;23;20009;-91
2022/07/25 16:49:52;;;;;;;2.47;0.90;;;;;;;-145.06;100.00;60892.56;5966572;23;20012;-91
2022/07/25 16:52:43;;;;;;;0.80;0.60;;;;;;;-145.06;100.00;60892.56;5966560;23;20083;-90
2022/07/25 16:55:28;;;;;;;1.10;0.50;;;;;;;-145.06;100.00;60892.56;5966572;23;20005;-92
2022/07/25 16:58:07;;;;;;;1.90;0.80;;;;;;;-145.06;100.00;60892.56;5966630;23;20017;-90
2022/07/25 17:01:06;;;;;;;1.33;0.75;;;;;;;-145.06;100.00;60892.56;5966957;23;20604;-90
2022/07/25 17:03:46;;;;;;;1.88;0.82;;;;;;;-145.06;100.00;60892.56;5966309;23;20013;-91
2022/07/25 17:06:30;;;;;;;;;;;;;;;-145.06;100.00;60892.56;5967443;23;20005;-92
2022/07/25 17:09:13;;;;;;;2.17;0.80;;;;;;;-145.06;100.00;60892.56;5966211;23;20548;-91
2022/07/25 17:12:00;;;;;;;1.67;0.70;;;;;;;-145.06;100.00;60892.56;5966735;23;20088;-91
2022/07/25 17:14:39;;;;;;;1.48;0.52;;;;;;;-145.06;100.00;60892.56;5966508;23;20001;-91
2022/07/25 17:17:25;;;;;;;1.45;0.70;;;;;;;-145.06;100.00;60892.56;5966611;23;20704;-92
2022/07/25 17:20:31;;;;;;;1.73;0.80;;;;;;;-145.06;100.00;60892.56;5966955;23;20001;-92
2022/07/25 17:23:42;;;;;;;1.83;0.90;;;;;;;-145.06;100.00;60892.56;5966620;23;20009;-91
2022/07/25 17:26:22;;;;;;;0.90;0.60;;;;;;;-145.06;100.00;60892.56;5967788;23;20036;-92
2022/07/25 17:37:26;;;;;;;3.75;0.80;;;;;;;-145.06;100.00;60892.56;6001684;23;20008;-91
2022/07/25 17:40:57;;;;;;;2.97;1.23;;;;;;;-145.06;100.00;60892.56;5907337;23;20080;-92
2022/07/25 17:47:06;;;;;;;0.65;0.50;;;;;;;-145.06;100.00;60892.56;5898834;23;20171;-92
2022/07/25 17:50:16;;;;;;;1.58;0.88;;;;;;;-145.06;100.00;60892.56;5886395;23;20013;-90
2022/07/25 17:53:03;;;;;;;1.23;0.50;;;;;;;-145.06;100.00;60892.56;5907842;23;20014;-90
2022/07/25 17:56:07;;;;;;;;;;;;;;;;;;;;;
2022/07/25 17:59:10;;;;;;;0.60;0.50;;;;;;;-145.06;100.00;60892.56;6006432;23;20427;-92
2022/07/25 18:02:04;;;;;;;;;;;;;;;;;;;;;
2022/07/25 18:04:47;;;;;;;1.33;0.57;;;;;;;-145.06;100.00;60892.56;6005913;23;20044;-91
2022/07/25 18:08:01;;;;;;;0.80;0.50;;;;;;;-145.06;100.00;60892.56;5974339;23;20012;-91
2022/07/25 18:11:40;;;;;;;0.57;0.40;;;;;;;-145.06;100.00;60892.56;5973396;23;20009;-90
2022/07/25 18:15:18;;;;;;;1.40;0.40;;;;;;;-145.06;100.00;60892.56;5973963;23;20009;-91
2022/07/25 18:18:30;;;;;;;1.42;0.43;;;;;;;-145.06;100.00;60892.56;5972939;23;20083;-91
2022/07/25 18:21:09;;;;;;;0.82;0.30;;;;;;;-145.06;100.00;60892.56;5973003;23;20008;-91
2022/07/25 18:24:30;;;;;;;;;;;;;;;-145.06;100.00;60892.56;5974094;23;20030;-91
2022/07/25 18:31:43;;;;;;;;;;;;;;;;;;;;;
2022/07/25 18:35:29;;;;;;;0.47;0.20;;;;;;;-145.06;100.00;60892.56;5859510;23;20497;-93
2022/07/25 18:38:57;;;;;;;;;;;;;;;;;;;;;
2022/07/25 18:42:50;;;;;;;1.92;0.57;;;;;;;-145.06;100.00;60892.56;5859651;23;20010;-91
2022/07/25 18:46:34;;;;;;;;;;;;;;;;;;;;;
2022/07/25 18:49:34;;;;;;;1.15;0.40;;;;;;;-145.06;100.00;60892.56;5988156;23;20016;-90
2022/07/25 18:52:13;;;;;;;0.40;0.20;;;;;;;-145.06;100.00;60892.56;5976417;23;20451;-91
2022/07/25 18:55:03;;;;;;;0.50;0.30;;;;;;;-145.06;100.00;60892.56;5966012;23;20321;-89
2022/07/25 18:57:45;;;;;;;0.60;0.20;;;;;;;-145.06;100.00;60892.56;5946271;23;20009;-90
2022/07/25 19:00:24;;;;;;;0.22;0.20;;;;;;;-145.06;100.00;60892.56;5947538;23;20344;-91
2022/07/25 19:03:03;;;;;;;0.15;0.10;;;;;;;-145.06;100.00;60892.56;6000558;23;20555;-91
2022/07/25 19:05:42;;;;;;;0.55;0.20;;;;;;;-145.06;100.00;60892.56;5972419;22;20009;-90
2022/07/25 19:08:27;;;;;;;0.15;0.15;;;;;;;-145.06;100.00;60892.56;5936633;23;20033;-89
2022/07/25 19:11:09;;;;;;;0.50;0.22;;;;;;;-145.06;100.00;60892.56;5935328;23;20005;-90
2022/07/25 19:13:52;;;;;;;0.85;0.30;;;;;;;-145.06;100.00;60892.56;5935287;23;20366;-92
2022/07/25 19:16:37;;;;;;;0.73;0.30;;;;;;;-145.06;100.00;60892.56;5935232;23;20005;-89
2022/07/25 19:19:28;;;;;;;0.75;0.45;;;;;;;-145.06;100.00;60892.56;5935213;23;20005;-89
2022/07/25 19:22:22;;;;;;;0.30;0.20;;;;;;;-145.06;100.00;60892.56;5935139;23;20005;-91
2022/07/25 19:25:07;;;;;;;0.30;0.20;;;;;;;-145.06;100.00;60892.56;5934863;23;20380;-89
2022/07/25 19:28:12;;;;;;;1.25;0.25;;;;;;;-145.06;100.00;60892.56;5935029;23;20164;-90
2022/07/25 19:30:55;;;;;;;0.45;0.10;;;;;;;-145.06;100.00;60892.56;5935845;23;20306;-90
2022/07/25 19:33:45;;;;;;;0.75;0.38;;;;;;;-145.06;100.00;60892.56;5935837;23;20010;-91
2022/07/25 19:36:25;;;;;;;0.70;0.10;;;;;;;-145.06;100.00;60892.56;5936439;23;20013;-90
2022/07/25 19:39:12;;;;;;;0.20;0.10;;;;;;;-145.06;100.00;60892.56;5936261;23;20471;-91
2022/07/25 19:46:32;;;;;;;;;;;;;;;;;;;;;
2022/07/25 19:53:10;;;;;;;;;;;;;;;;;;;;;
2022/07/25 20:04:15;;;;;;;2.15;0.20;;;;;;;-145.06;100.00;60892.56;5943629;23;20017;-91
2022/07/25 20:07:55;;;;;;;;;;;;;;;;;;;;;
2022/07/25 20:18:32;;;;;;;;;;;;;;;;;;;;;
2022/07/25 20:21:48;;;;;;;1.02;0.20;;;;;;;-145.06;100.00;60892.56;5831725;23;20339;-90
2022/07/25 20:39:38;;;;;;;0.95;0.25;;;;;;;-145.06;100.00;60892.56;5808754;23;20492;-91
2022/07/25 21:00:32;;;;;;;0.10;0.10;;;;;;;-145.06;100.00;60892.56;5965928;23;19904;-90
2022/07/25 21:04:06;;;;;;;0.98;0.20;;;;;;;-145.06;100.00;60892.56;5945298;23;20435;-91
2022/07/25 21:21:47;;;;;;;0.95;0.40;;;;;;;-145.06;100.00;60892.56;5988016;23;19908;-89
2022/07/25 21:24:26;;;;;;;0.30;0.22;;;;;;;-145.06;100.00;60892.56;5976607;23;20005;-92
2022/07/25 21:38:58;;;;;;;0.63;0.28;;;;;;;-145.06;100.00;60892.56;5932519;23;20004;-90
2022/07/25 21:42:38;;;;;;;1.33;0.40;;;;;;;-145.06;100.00;60892.56;5959703;23;20012;-91
2022/07/25 21:57:25;;;;;;;;;;;;;;;;;;;;;
2022/07/25 22:01:06;;;;;;;;;;;;;;;;;;;;;
2022/07/25 23:23:59;;;;;;;;;;;;;;;;;;;;;
2022/07/25 23:35:03;;;;;;;;;;;;;;;;;;;;;
2022/07/25 23:38:44;;;;;;;;;;;;;;;;;;;;;
2022/07/25 23:45:44;;;;;;;0.20;0.17;;;;;;;-145.06;100.00;60892.56;5864211;23;20446;-91
2022/07/25 23:49:13;;;;;;;0.85;0.22;;;;;;;-145.06;100.00;60892.56;5834583;23;20023;-89
